sensor_id;sensor_type;location;lat;lon;timestamp;pressure;altitude;pressure_sealevel;temperature;humidity
8140;BME280;4111;50.972;7.072;2023-06-14T00:00:41;100782.25;;;22.15;41.55
8140;BME280;4111;50.972;7.072;2023-06-14T00:03:09;100782.94;;;22.12;41.41
8140;BME280;4111;50.972;7.072;2023-06-14T00:05:38;100787.78;;;22.15;41.45
8140;BME280;4111;50.972;7.072;2023-06-14T00:08:07;100789.59;;;22.11;41.60
8140;BME280;4111;50.972;7.072;2023-06-14T00:10:35;100790.03;;;21.95;41.67
8140;BME280;4111;50.972;7.072;2023-06-14T00:13:03;100787.28;;;21.87;42.49
8140;BME280;4111;50.972;7.072;2023-06-14T00:15:31;100792.47;;;21.88;42.55
8140;BME280;4111;50.972;7.072;2023-06-14T00:17:58;100798.63;;;21.85;43.15
8140;BME280;4111;50.972;7.072;2023-06-14T00:20:29;100798.16;;;21.83;43.26
8140;BME280;4111;50.972;7.072;2023-06-14T00:22:57;100801.72;;;21.75;43.38
8140;BME280;4111;50.972;7.072;2023-06-14T00:25:24;100807.88;;;21.72;43.63
8140;BME280;4111;50.972;7.072;2023-06-14T00:27:56;100804.13;;;21.68;43.63
8140;BME280;4111;50.972;7.072;2023-06-14T00:30:23;100801.66;;;21.57;43.73
8140;BME280;4111;50.972;7.072;2023-06-14T00:32:50;100811.53;;;21.50;44.24
8140;BME280;4111;50.972;7.072;2023-06-14T00:35:18;100804.88;;;21.51;43.98
8140;BME280;4111;50.972;7.072;2023-06-14T00:37:45;100811.34;;;21.46;44.01
8140;BME280;4111;50.972;7.072;2023-06-14T00:40:11;100809.25;;;21.52;43.94
8140;BME280;4111;50.972;7.072;2023-06-14T00:42:38;100810.31;;;21.42;44.10
8140;BME280;4111;50.972;7.072;2023-06-14T00:45:05;100812.00;;;21.43;44.34
8140;BME280;4111;50.972;7.072;2023-06-14T00:47:32;100813.06;;;21.33;44.58
8140;BME280;4111;50.972;7.072;2023-06-14T00:49:59;100809.44;;;21.24;44.59
8140;BME280;4111;50.972;7.072;2023-06-14T00:52:26;100816.22;;;21.18;44.85
8140;BME280;4111;50.972;7.072;2023-06-14T00:54:54;100814.25;;;21.18;44.71
8140;BME280;4111;50.972;7.072;2023-06-14T00:57:20;100816.03;;;21.14;45.12
8140;BME280;4111;50.972;7.072;2023-06-14T00:59:48;100814.41;;;21.13;45.28
8140;BME280;4111;50.972;7.072;2023-06-14T01:02:16;100818.09;;;21.09;45.34
8140;BME280;4111;50.972;7.072;2023-06-14T01:04:47;100821.00;;;21.04;45.42
8140;BME280;4111;50.972;7.072;2023-06-14T01:07:46;100830.41;;;21.03;44.96
8140;BME280;4111;50.972;7.072;2023-06-14T01:13:10;100822.97;;;21.03;44.95
8140;BME280;4111;50.972;7.072;2023-06-14T01:15:41;100827.16;;;21.00;45.22
8140;BME280;4111;50.972;7.072;2023-06-14T01:18:09;100833.50;;;21.01;44.99
8140;BME280;4111;50.972;7.072;2023-06-14T01:20:45;100835.44;;;21.00;44.89
8140;BME280;4111;50.972;7.072;2023-06-14T01:23:17;100834.13;;;20.98;44.25
8140;BME280;4111;50.972;7.072;2023-06-14T01:25:44;100834.44;;;20.96;44.21
8140;BME280;4111;50.972;7.072;2023-06-14T01:28:12;100828.59;;;20.98;43.58
8140;BME280;4111;50.972;7.072;2023-06-14T01:30:40;100825.16;;;20.92;43.95
8140;BME280;4111;50.972;7.072;2023-06-14T01:33:16;100830.38;;;20.94;43.78
8140;BME280;4111;50.972;7.072;2023-06-14T01:35:46;100829.72;;;20.97;43.83
8140;BME280;4111;50.972;7.072;2023-06-14T01:38:14;100824.34;;;20.92;44.15
8140;BME280;4111;50.972;7.072;2023-06-14T01:40:43;100831.13;;;20.86;43.75
8140;BME280;4111;50.972;7.072;2023-06-14T01:43:13;100834.25;;;20.93;43.97
8140;BME280;4111;50.972;7.072;2023-06-14T01:45:41;100832.44;;;20.88;43.52
8140;BME280;4111;50.972;7.072;2023-06-14T01:48:09;100829.97;;;20.87;43.54
8140;BME280;4111;50.972;7.072;2023-06-14T01:50:36;100834.88;;;20.90;43.48
8140;BME280;4111;50.972;7.072;2023-06-14T01:53:02;100833.38;;;20.84;42.95
8140;BME280;4111;50.972;7.072;2023-06-14T01:55:29;100839.66;;;20.75;43.06
8140;BME280;4111;50.972;7.072;2023-06-14T01:57:55;100832.38;;;20.79;43.06
8140;BME280;4111;50.972;7.072;2023-06-14T02:00:22;100829.75;;;20.74;42.70
8140;BME280;4111;50.972;7.072;2023-06-14T02:02:49;100826.88;;;20.79;42.79
8140;BME280;4111;50.972;7.072;2023-06-14T02:05:16;100837.25;;;20.83;42.96
8140;BME280;4111;50.972;7.072;2023-06-14T02:07:45;100826.59;;;20.90;43.25
8140;BME280;4111;50.972;7.072;2023-06-14T02:10:13;100831.13;;;20.86;42.82
8140;BME280;4111;50.972;7.072;2023-06-14T02:12:41;100834.66;;;20.77;42.94
8140;BME280;4111;50.972;7.072;2023-06-14T02:15:08;100840.22;;;20.64;43.39
8140;BME280;4111;50.972;7.072;2023-06-14T02:17:35;100839.84;;;20.43;43.74
8140;BME280;4111;50.972;7.072;2023-06-14T02:20:02;100846.41;;;20.33;44.40
8140;BME280;4111;50.972;7.072;2023-06-14T02:22:31;100842.31;;;20.30;45.19
8140;BME280;4111;50.972;7.072;2023-06-14T02:24:57;100843.56;;;20.24;45.21
8140;BME280;4111;50.972;7.072;2023-06-14T02:27:28;100848.66;;;20.17;45.20
8140;BME280;4111;50.972;7.072;2023-06-14T02:29:54;100856.03;;;20.08;45.65
8140;BME280;4111;50.972;7.072;2023-06-14T02:32:21;100851.16;;;20.05;46.05
8140;BME280;4111;50.972;7.072;2023-06-14T02:34:48;100854.72;;;19.91;46.33
8140;BME280;4111;50.972;7.072;2023-06-14T02:37:16;100863.78;;;19.78;46.91
8140;BME280;4111;50.972;7.072;2023-06-14T02:39:43;100864.41;;;19.75;47.28
8140;BME280;4111;50.972;7.072;2023-06-14T02:42:09;100861.16;;;19.73;47.59
8140;BME280;4111;50.972;7.072;2023-06-14T02:44:36;100868.25;;;19.60;47.61
8140;BME280;4111;50.972;7.072;2023-06-14T02:47:04;100860.91;;;19.55;48.52
8140;BME280;4111;50.972;7.072;2023-06-14T02:49:31;100864.75;;;19.54;48.08
8140;BME280;4111;50.972;7.072;2023-06-14T02:51:57;100855.78;;;19.49;48.63
8140;BME280;4111;50.972;7.072;2023-06-14T02:54:24;100866.38;;;19.41;48.72
8140;BME280;4111;50.972;7.072;2023-06-14T02:56:51;100870.03;;;19.37;48.82
8140;BME280;4111;50.972;7.072;2023-06-14T02:59:17;100865.75;;;19.31;48.85
8140;BME280;4111;50.972;7.072;2023-06-14T03:01:45;100869.59;;;19.16;49.43
8140;BME280;4111;50.972;7.072;2023-06-14T03:04:12;100867.72;;;19.11;49.96
8140;BME280;4111;50.972;7.072;2023-06-14T03:06:39;100874.25;;;19.15;50.16
8140;BME280;4111;50.972;7.072;2023-06-14T03:09:06;100870.75;;;18.96;50.82
8140;BME280;4111;50.972;7.072;2023-06-14T03:11:35;100874.31;;;18.96;50.91
8140;BME280;4111;50.972;7.072;2023-06-14T03:14:02;100882.28;;;18.98;50.94
8140;BME280;4111;50.972;7.072;2023-06-14T03:16:34;100882.28;;;18.98;50.86
8140;BME280;4111;50.972;7.072;2023-06-14T03:19:01;100884.72;;;18.80;51.67
8140;BME280;4111;50.972;7.072;2023-06-14T03:21:28;100884.44;;;18.82;51.54
8140;BME280;4111;50.972;7.072;2023-06-14T03:23:55;100883.16;;;18.74;51.84
8140;BME280;4111;50.972;7.072;2023-06-14T03:26:22;100889.16;;;18.57;52.25
8140;BME280;4111;50.972;7.072;2023-06-14T03:28:48;100892.72;;;18.58;51.99
8140;BME280;4111;50.972;7.072;2023-06-14T03:31:16;100891.69;;;18.54;52.50
8140;BME280;4111;50.972;7.072;2023-06-14T03:33:43;100898.97;;;18.45;52.70
8140;BME280;4111;50.972;7.072;2023-06-14T03:36:09;100894.38;;;18.59;52.46
8140;BME280;4111;50.972;7.072;2023-06-14T03:38:36;100895.63;;;18.67;52.21
8140;BME280;4111;50.972;7.072;2023-06-14T03:41:03;100899.34;;;18.57;52.84
8140;BME280;4111;50.972;7.072;2023-06-14T03:43:29;100904.09;;;18.51;52.98
8140;BME280;4111;50.972;7.072;2023-06-14T03:45:56;100900.59;;;18.46;53.42
8140;BME280;4111;50.972;7.072;2023-06-14T03:48:23;100907.66;;;18.52;53.77
8140;BME280;4111;50.972;7.072;2023-06-14T03:50:50;100908.03;;;18.45;53.98
8140;BME280;4111;50.972;7.072;2023-06-14T03:53:17;100908.03;;;18.45;54.28
8140;BME280;4111;50.972;7.072;2023-06-14T03:55:43;100908.97;;;18.35;54.38
8140;BME280;4111;50.972;7.072;2023-06-14T03:58:13;100909.28;;;18.34;54.76
8140;BME280;4111;50.972;7.072;2023-06-14T04:00:39;100910.22;;;18.24;55.45
8140;BME280;4111;50.972;7.072;2023-06-14T04:03:06;100917.00;;;18.32;55.18
8140;BME280;4111;50.972;7.072;2023-06-14T04:05:33;100911.22;;;18.33;55.08
8140;BME280;4111;50.972;7.072;2023-06-14T04:08:00;100917.75;;;18.37;55.28
8140;BME280;4111;50.972;7.072;2023-06-14T04:10:27;100922.16;;;18.38;55.26
8140;BME280;4111;50.972;7.072;2023-06-14T04:12:54;100924.44;;;18.31;55.82
8140;BME280;4111;50.972;7.072;2023-06-14T04:15:20;100935.47;;;18.26;56.24
8140;BME280;4111;50.972;7.072;2023-06-14T04:17:48;100934.94;;;18.24;56.36
8140;BME280;4111;50.972;7.072;2023-06-14T04:20:15;100934.94;;;18.24;56.69
8140;BME280;4111;50.972;7.072;2023-06-14T04:22:43;100947.41;;;18.16;57.43
8140;BME280;4111;50.972;7.072;2023-06-14T04:25:10;100943.16;;;18.29;57.22
8140;BME280;4111;50.972;7.072;2023-06-14T04:27:37;100942.75;;;18.17;57.91
8140;BME280;4111;50.972;7.072;2023-06-14T04:30:04;100950.88;;;18.27;57.37
8140;BME280;4111;50.972;7.072;2023-06-14T04:32:32;100957.41;;;18.31;57.75
8140;BME280;4111;50.972;7.072;2023-06-14T04:35:08;100951.44;;;18.24;57.98
8140;BME280;4111;50.972;7.072;2023-06-14T04:41:16;100959.63;;;18.29;58.41
8140;BME280;4111;50.972;7.072;2023-06-14T04:57:24;100975.22;;;18.58;59.19
8140;BME280;4111;50.972;7.072;2023-06-14T04:59:51;100973.69;;;18.71;59.25
8140;BME280;4111;50.972;7.072;2023-06-14T05:02:24;100979.94;;;18.76;59.41
8140;BME280;4111;50.972;7.072;2023-06-14T05:04:52;100972.69;;;18.86;58.88
8140;BME280;4111;50.972;7.072;2023-06-14T05:07:19;100976.53;;;19.03;58.53
8140;BME280;4111;50.972;7.072;2023-06-14T05:09:46;100983.31;;;19.11;57.95
8140;BME280;4111;50.972;7.072;2023-06-14T05:12:12;100981.97;;;19.28;56.99
8140;BME280;4111;50.972;7.072;2023-06-14T05:14:39;100982.84;;;19.42;56.42
8140;BME280;4111;50.972;7.072;2023-06-14T05:17:06;100974.72;;;19.51;55.96
8140;BME280;4111;50.972;7.072;2023-06-14T05:19:32;100980.44;;;19.54;55.20
8140;BME280;4111;50.972;7.072;2023-06-14T05:21:58;100986.38;;;19.61;54.66
8140;BME280;4111;50.972;7.072;2023-06-14T05:24:25;100984.59;;;19.71;54.58
8140;BME280;4111;50.972;7.072;2023-06-14T05:26:52;100979.91;;;19.71;53.26
8140;BME280;4111;50.972;7.072;2023-06-14T05:29:18;100975.44;;;19.75;52.45
8140;BME280;4111;50.972;7.072;2023-06-14T05:31:44;100984.66;;;19.85;52.28
8140;BME280;4111;50.972;7.072;2023-06-14T05:34:11;100982.59;;;19.90;51.40
8140;BME280;4111;50.972;7.072;2023-06-14T05:36:38;100981.00;;;20.03;51.26
8140;BME280;4111;50.972;7.072;2023-06-14T05:39:05;100979.16;;;19.98;50.53
8140;BME280;4111;50.972;7.072;2023-06-14T05:41:32;100982.22;;;20.11;50.32
8140;BME280;4111;50.972;7.072;2023-06-14T05:44:01;100974.03;;;20.19;50.09
8140;BME280;4111;50.972;7.072;2023-06-14T05:46:27;100988.25;;;20.13;49.51
8140;BME280;4111;50.972;7.072;2023-06-14T05:48:55;100982.94;;;20.30;49.09
8140;BME280;4111;50.972;7.072;2023-06-14T05:51:22;100993.47;;;20.42;49.03
8140;BME280;4111;50.972;7.072;2023-06-14T05:53:51;100988.56;;;20.53;48.49
8140;BME280;4111;50.972;7.072;2023-06-14T05:56:18;100994.09;;;20.67;48.41
8140;BME280;4111;50.972;7.072;2023-06-14T05:58:45;100995.59;;;20.73;48.30
8140;BME280;4111;50.972;7.072;2023-06-14T06:01:12;101000.53;;;20.62;47.38
8140;BME280;4111;50.972;7.072;2023-06-14T06:03:39;101001.44;;;20.71;46.99
8140;BME280;4111;50.972;7.072;2023-06-14T06:06:06;101001.63;;;20.75;46.80
8140;BME280;4111;50.972;7.072;2023-06-14T06:08:33;101003.34;;;20.85;47.03
8140;BME280;4111;50.972;7.072;2023-06-14T06:10:59;101010.19;;;21.01;46.84
8140;BME280;4111;50.972;7.072;2023-06-14T06:13:27;101005.03;;;21.08;47.07
8140;BME280;4111;50.972;7.072;2023-06-14T06:15:53;101008.47;;;21.28;47.17
8140;BME280;4111;50.972;7.072;2023-06-14T06:18:19;101001.13;;;21.23;46.41
8140;BME280;4111;50.972;7.072;2023-06-14T06:20:46;101009.06;;;21.25;45.73
8140;BME280;4111;50.972;7.072;2023-06-14T06:23:13;101015.78;;;21.32;45.67
8140;BME280;4111;50.972;7.072;2023-06-14T06:25:40;101007.97;;;21.48;45.64
8140;BME280;4111;50.972;7.072;2023-06-14T06:28:06;101013.31;;;21.67;46.05
8140;BME280;4111;50.972;7.072;2023-06-14T06:30:32;101022.31;;;21.73;45.47
8140;BME280;4111;50.972;7.072;2023-06-14T06:32:59;101014.41;;;21.80;45.80
8140;BME280;4111;50.972;7.072;2023-06-14T06:35:25;101020.25;;;21.78;44.95
8140;BME280;4111;50.972;7.072;2023-06-14T06:37:52;101024.19;;;21.86;45.14
8140;BME280;4111;50.972;7.072;2023-06-14T06:40:19;101024.41;;;21.98;45.10
8140;BME280;4111;50.972;7.072;2023-06-14T06:42:45;101023.44;;;22.03;45.21
8140;BME280;4111;50.972;7.072;2023-06-14T06:45:12;101021.84;;;22.02;44.70
8140;BME280;4111;50.972;7.072;2023-06-14T06:47:39;101028.44;;;21.92;44.03
8140;BME280;4111;50.972;7.072;2023-06-14T06:50:05;101031.25;;;22.01;43.68
8140;BME280;4111;50.972;7.072;2023-06-14T06:52:33;101037.66;;;22.10;43.99
8140;BME280;4111;50.972;7.072;2023-06-14T06:55:00;101039.03;;;21.99;43.05
8140;BME280;4111;50.972;7.072;2023-06-14T06:57:26;101047.56;;;22.11;43.15
8140;BME280;4111;50.972;7.072;2023-06-14T06:59:55;101044.94;;;22.06;42.26
8140;BME280;4111;50.972;7.072;2023-06-14T07:02:21;101040.59;;;22.14;41.91
8140;BME280;4111;50.972;7.072;2023-06-14T07:04:48;101045.97;;;22.19;41.57
8140;BME280;4111;50.972;7.072;2023-06-14T07:07:14;101052.41;;;22.28;41.43
8140;BME280;4111;50.972;7.072;2023-06-14T07:09:41;101049.84;;;22.41;41.42
8140;BME280;4111;50.972;7.072;2023-06-14T07:12:08;101051.22;;;22.52;40.90
8140;BME280;4111;50.972;7.072;2023-06-14T07:14:34;101047.13;;;22.49;40.27
8140;BME280;4111;50.972;7.072;2023-06-14T07:17:01;101043.09;;;22.64;40.85
8140;BME280;4111;50.972;7.072;2023-06-14T07:19:27;101047.03;;;22.72;40.36
8140;BME280;4111;50.972;7.072;2023-06-14T07:21:54;101042.16;;;22.77;40.31
8140;BME280;4111;50.972;7.072;2023-06-14T07:24:20;101043.66;;;22.84;40.35
8140;BME280;4111;50.972;7.072;2023-06-14T07:26:47;101040.88;;;22.84;39.77
8140;BME280;4111;50.972;7.072;2023-06-14T07:29:17;101043.03;;;22.87;39.35
8140;BME280;4111;50.972;7.072;2023-06-14T07:31:43;101039.59;;;22.90;39.42
8140;BME280;4111;50.972;7.072;2023-06-14T07:34:10;101036.19;;;23.02;39.76
8140;BME280;4111;50.972;7.072;2023-06-14T07:36:36;101047.63;;;23.09;39.29
8140;BME280;4111;50.972;7.072;2023-06-14T07:39:03;101042.44;;;23.25;39.37
8140;BME280;4111;50.972;7.072;2023-06-14T07:41:29;101047.16;;;23.33;39.23
8140;BME280;4111;50.972;7.072;2023-06-14T07:43:56;101050.75;;;23.42;38.76
8140;BME280;4111;50.972;7.072;2023-06-14T07:46:22;101049.78;;;23.47;37.82
8140;BME280;4111;50.972;7.072;2023-06-14T07:48:49;101044.25;;;23.38;36.36
8140;BME280;4111;50.972;7.072;2023-06-14T07:51:16;101044.41;;;23.50;36.55
8140;BME280;4111;50.972;7.072;2023-06-14T07:53:43;101046.81;;;23.17;35.61
8140;BME280;4111;50.972;7.072;2023-06-14T07:56:09;101041.59;;;23.24;35.76
8140;BME280;4111;50.972;7.072;2023-06-14T07:58:36;101033.81;;;23.26;35.71
8140;BME280;4111;50.972;7.072;2023-06-14T08:01:02;101041.28;;;23.43;35.70
8140;BME280;4111;50.972;7.072;2023-06-14T08:03:32;101032.81;;;23.48;35.02
8140;BME280;4111;50.972;7.072;2023-06-14T08:05:59;101034.13;;;23.42;34.53
8140;BME280;4111;50.972;7.072;2023-06-14T08:08:26;101025.47;;;23.61;34.54
8140;BME280;4111;50.972;7.072;2023-06-14T08:10:53;101032.81;;;23.66;34.54
8140;BME280;4111;50.972;7.072;2023-06-14T08:13:19;101036.88;;;23.86;34.33
8140;BME280;4111;50.972;7.072;2023-06-14T08:15:46;101026.28;;;23.70;33.33
8140;BME280;4111;50.972;7.072;2023-06-14T08:18:12;101035.06;;;23.90;33.86
8140;BME280;4111;50.972;7.072;2023-06-14T08:20:39;101036.84;;;24.03;33.94
8140;BME280;4111;50.972;7.072;2023-06-14T08:23:06;101035.94;;;24.20;33.59
8140;BME280;4111;50.972;7.072;2023-06-14T08:25:32;101025.44;;;24.34;33.99
8140;BME280;4111;50.972;7.072;2023-06-14T08:27:59;101031.59;;;24.49;33.81
8140;BME280;4111;50.972;7.072;2023-06-14T08:30:26;101025.97;;;24.66;33.61
8140;BME280;4111;50.972;7.072;2023-06-14T08:32:52;101016.91;;;24.78;33.72
8140;BME280;4111;50.972;7.072;2023-06-14T08:35:40;101031.09;;;24.85;33.85
8140;BME280;4111;50.972;7.072;2023-06-14T08:38:07;101029.44;;;24.63;32.84
8140;BME280;4111;50.972;7.072;2023-06-14T08:40:37;101030.69;;;24.74;33.59
8140;BME280;4111;50.972;7.072;2023-06-14T08:43:04;101030.75;;;24.57;32.22
8140;BME280;4111;50.972;7.072;2023-06-14T08:45:30;101029.97;;;24.78;33.00
8140;BME280;4111;50.972;7.072;2023-06-14T08:47:58;101025.41;;;25.03;33.22
8140;BME280;4111;50.972;7.072;2023-06-14T08:50:27;101018.25;;;25.23;32.97
8140;BME280;4111;50.972;7.072;2023-06-14T08:52:58;101020.41;;;25.17;32.32
8140;BME280;4111;50.972;7.072;2023-06-14T08:55:29;101029.06;;;24.94;31.99
8140;BME280;4111;50.972;7.072;2023-06-14T08:58:01;101016.66;;;24.92;32.17
8140;BME280;4111;50.972;7.072;2023-06-14T09:00:29;101017.19;;;24.85;31.95
8140;BME280;4111;50.972;7.072;2023-06-14T09:02:56;101016.53;;;25.09;32.78
8140;BME280;4111;50.972;7.072;2023-06-14T09:05:27;101015.66;;;25.39;32.45
8140;BME280;4111;50.972;7.072;2023-06-14T09:07:54;101021.22;;;25.39;32.75
8140;BME280;4111;50.972;7.072;2023-06-14T09:10:31;101021.31;;;25.30;31.48
8140;BME280;4111;50.972;7.072;2023-06-14T09:13:01;101020.03;;;24.98;31.60
8140;BME280;4111;50.972;7.072;2023-06-14T09:15:28;101019.13;;;25.14;32.23
8140;BME280;4111;50.972;7.072;2023-06-14T09:17:55;101024.06;;;25.51;32.53
8140;BME280;4111;50.972;7.072;2023-06-14T09:20:23;101021.69;;;25.62;32.60
8140;BME280;4111;50.972;7.072;2023-06-14T09:22:50;101020.88;;;25.19;32.05
8140;BME280;4111;50.972;7.072;2023-06-14T09:25:17;101017.94;;;25.16;32.68
8140;BME280;4111;50.972;7.072;2023-06-14T09:28:06;101021.84;;;25.23;32.39
8140;BME280;4111;50.972;7.072;2023-06-14T09:30:33;101018.72;;;25.25;32.49
8140;BME280;4111;50.972;7.072;2023-06-14T09:33:00;101021.03;;;25.23;32.10
8140;BME280;4111;50.972;7.072;2023-06-14T09:35:27;101024.09;;;25.30;32.24
8140;BME280;4111;50.972;7.072;2023-06-14T09:37:57;101038.78;;;25.51;32.21
8140;BME280;4111;50.972;7.072;2023-06-14T09:40:23;101037.56;;;25.61;32.25
8140;BME280;4111;50.972;7.072;2023-06-14T09:42:51;101035.03;;;25.81;32.42
8140;BME280;4111;50.972;7.072;2023-06-14T09:45:17;101028.72;;;25.59;31.87
8140;BME280;4111;50.972;7.072;2023-06-14T09:47:51;101035.81;;;25.69;32.51
8140;BME280;4111;50.972;7.072;2023-06-14T09:50:32;101043.56;;;25.30;31.78
8140;BME280;4111;50.972;7.072;2023-06-14T09:53:06;101036.75;;;25.19;32.18
8140;BME280;4111;50.972;7.072;2023-06-14T09:55:37;101037.41;;;25.58;32.78
8140;BME280;4111;50.972;7.072;2023-06-14T09:58:06;101030.72;;;26.04;32.74
8140;BME280;4111;50.972;7.072;2023-06-14T10:00:34;101025.28;;;25.96;32.33
8140;BME280;4111;50.972;7.072;2023-06-14T10:03:06;101029.00;;;26.12;32.07
8140;BME280;4111;50.972;7.072;2023-06-14T10:05:37;101030.84;;;25.96;31.43
8140;BME280;4111;50.972;7.072;2023-06-14T10:08:10;101035.88;;;25.81;31.09
8140;BME280;4111;50.972;7.072;2023-06-14T10:10:39;101032.03;;;26.19;31.91
8140;BME280;4111;50.972;7.072;2023-06-14T10:13:07;101044.81;;;26.33;31.14
8140;BME280;4111;50.972;7.072;2023-06-14T10:16:07;101038.13;;;26.58;31.17
8140;BME280;4111;50.972;7.072;2023-06-14T10:18:49;101029.38;;;26.47;30.63
8140;BME280;4111;50.972;7.072;2023-06-14T10:24:17;101032.06;;;26.81;31.65
8140;BME280;4111;50.972;7.072;2023-06-14T10:26:53;101029.91;;;27.15;31.47
8140;BME280;4111;50.972;7.072;2023-06-14T10:29:21;101024.72;;;28.14;30.72
8140;BME280;4111;50.972;7.072;2023-06-14T10:31:49;101020.50;;;28.67;29.17
8140;BME280;4111;50.972;7.072;2023-06-14T10:34:23;101014.78;;;28.80;29.04
8140;BME280;4111;50.972;7.072;2023-06-14T10:37:11;101029.22;;;29.37;28.89
8140;BME280;4111;50.972;7.072;2023-06-14T10:39:42;101016.13;;;29.83;28.63
8140;BME280;4111;50.972;7.072;2023-06-14T10:42:09;101013.59;;;30.44;28.65
8140;BME280;4111;50.972;7.072;2023-06-14T10:44:44;101016.72;;;30.92;28.04
8140;BME280;4111;50.972;7.072;2023-06-14T10:47:23;101015.19;;;30.95;27.88
8140;BME280;4111;50.972;7.072;2023-06-14T10:49:53;101002.66;;;31.19;27.23
8140;BME280;4111;50.972;7.072;2023-06-14T10:52:25;101019.75;;;31.07;27.62
8140;BME280;4111;50.972;7.072;2023-06-14T10:55:14;101014.34;;;30.94;28.25
8140;BME280;4111;50.972;7.072;2023-06-14T10:57:50;101013.88;;;30.62;28.39
8140;BME280;4111;50.972;7.072;2023-06-14T11:00:27;101017.28;;;30.75;28.41
8140;BME280;4111;50.972;7.072;2023-06-14T11:03:13;101016.72;;;30.39;28.50
8140;BME280;4111;50.972;7.072;2023-06-14T11:11:22;101006.59;;;29.65;29.59
8140;BME280;4111;50.972;7.072;2023-06-14T11:13:50;101015.16;;;29.53;29.72
8140;BME280;4111;50.972;7.072;2023-06-14T11:16:19;101015.69;;;29.81;30.00
8140;BME280;4111;50.972;7.072;2023-06-14T11:18:46;101005.03;;;30.10;29.68
8140;BME280;4111;50.972;7.072;2023-06-14T11:21:17;101003.28;;;29.79;30.07
8140;BME280;4111;50.972;7.072;2023-06-14T11:23:53;100999.03;;;30.35;29.82
8140;BME280;4111;50.972;7.072;2023-06-14T11:26:28;101002.84;;;30.00;29.24
8140;BME280;4111;50.972;7.072;2023-06-14T11:28:59;100994.31;;;29.93;29.58
8140;BME280;4111;50.972;7.072;2023-06-14T11:31:27;101000.66;;;29.90;29.83
8140;BME280;4111;50.972;7.072;2023-06-14T11:33:55;101003.47;;;30.36;29.11
8140;BME280;4111;50.972;7.072;2023-06-14T11:36:26;101008.56;;;29.84;28.85
8140;BME280;4111;50.972;7.072;2023-06-14T11:39:03;100999.84;;;29.89;28.65
8140;BME280;4111;50.972;7.072;2023-06-14T11:41:41;101006.81;;;29.76;28.67
8140;BME280;4111;50.972;7.072;2023-06-14T11:44:08;100995.56;;;29.95;28.95
8140;BME280;4111;50.972;7.072;2023-06-14T11:46:35;100988.09;;;30.03;28.95
8140;BME280;4111;50.972;7.072;2023-06-14T11:49:02;100988.75;;;30.19;28.20
8140;BME280;4111;50.972;7.072;2023-06-14T11:51:32;100994.69;;;30.14;28.35
8140;BME280;4111;50.972;7.072;2023-06-14T11:53:59;100997.78;;;29.24;28.63
8140;BME280;4111;50.972;7.072;2023-06-14T11:56:26;100992.09;;;28.49;28.95
8140;BME280;4111;50.972;7.072;2023-06-14T11:58:53;100994.09;;;28.17;30.13
8140;BME280;4111;50.972;7.072;2023-06-14T12:01:22;101000.44;;;27.98;30.63
8140;BME280;4111;50.972;7.072;2023-06-14T12:03:50;101006.75;;;27.67;29.61
8140;BME280;4111;50.972;7.072;2023-06-14T12:06:26;101012.63;;;27.49;30.80
8140;BME280;4111;50.972;7.072;2023-06-14T12:08:56;101006.84;;;27.42;30.99
8140;BME280;4111;50.972;7.072;2023-06-14T12:11:22;100997.31;;;27.43;31.04
8140;BME280;4111;50.972;7.072;2023-06-14T12:13:49;101007.31;;;27.04;30.73
8140;BME280;4111;50.972;7.072;2023-06-14T12:16:15;100993.84;;;27.06;31.20
8140;BME280;4111;50.972;7.072;2023-06-14T12:18:42;101003.09;;;27.10;31.82
8140;BME280;4111;50.972;7.072;2023-06-14T12:21:09;101001.84;;;27.07;31.14
8140;BME280;4111;50.972;7.072;2023-06-14T12:23:49;101010.00;;;26.76;31.77
8140;BME280;4111;50.972;7.072;2023-06-14T12:26:18;101005.38;;;26.92;31.76
8140;BME280;4111;50.972;7.072;2023-06-14T12:28:46;101003.09;;;27.10;31.58
8140;BME280;4111;50.972;7.072;2023-06-14T12:31:16;101001.94;;;27.11;31.87
8140;BME280;4111;50.972;7.072;2023-06-14T12:33:43;100998.78;;;27.13;32.12
8140;BME280;4111;50.972;7.072;2023-06-14T12:36:13;101000.22;;;27.06;32.48
8140;BME280;4111;50.972;7.072;2023-06-14T12:38:39;101009.19;;;27.00;32.47
8140;BME280;4111;50.972;7.072;2023-06-14T12:41:06;101009.03;;;27.08;32.32
8140;BME280;4111;50.972;7.072;2023-06-14T12:43:33;101005.09;;;27.09;32.38
8140;BME280;4111;50.972;7.072;2023-06-14T12:46:00;101013.56;;;27.01;32.36
8140;BME280;4111;50.972;7.072;2023-06-14T12:48:26;101004.88;;;27.02;32.50
8140;BME280;4111;50.972;7.072;2023-06-14T12:50:53;101010.44;;;27.02;32.65
8140;BME280;4111;50.972;7.072;2023-06-14T12:53:20;101009.78;;;26.81;32.32
8140;BME280;4111;50.972;7.072;2023-06-14T12:55:47;101020.47;;;26.79;33.25
8140;BME280;4111;50.972;7.072;2023-06-14T12:58:14;101013.94;;;26.87;32.68
8140;BME280;4111;50.972;7.072;2023-06-14T13:00:40;101020.50;;;26.66;32.89
8140;BME280;4111;50.972;7.072;2023-06-14T13:03:07;101015.72;;;26.67;33.18
8140;BME280;4111;50.972;7.072;2023-06-14T13:05:33;101008.63;;;26.57;33.06
8140;BME280;4111;50.972;7.072;2023-06-14T13:08:00;101014.91;;;26.66;32.62
8140;BME280;4111;50.972;7.072;2023-06-14T13:10:26;101023.25;;;26.79;33.06
8140;BME280;4111;50.972;7.072;2023-06-14T13:12:54;101017.44;;;26.84;32.49
8140;BME280;4111;50.972;7.072;2023-06-14T13:15:21;101023.94;;;26.76;32.89
8140;BME280;4111;50.972;7.072;2023-06-14T13:17:47;101023.94;;;26.76;32.98
8140;BME280;4111;50.972;7.072;2023-06-14T13:20:15;101019.53;;;26.87;32.92
8140;BME280;4111;50.972;7.072;2023-06-14T13:22:45;101022.91;;;26.80;32.61
8140;BME280;4111;50.972;7.072;2023-06-14T13:25:12;101024.63;;;26.85;32.93
8140;BME280;4111;50.972;7.072;2023-06-14T13:27:38;101021.63;;;26.90;32.62
8140;BME280;4111;50.972;7.072;2023-06-14T13:30:06;101027.25;;;27.59;32.11
8140;BME280;4111;50.972;7.072;2023-06-14T13:32:33;101026.81;;;28.33;31.74
8140;BME280;4111;50.972;7.072;2023-06-14T13:34:59;101009.22;;;28.48;30.71
8140;BME280;4111;50.972;7.072;2023-06-14T13:37:26;101011.41;;;28.55;30.69
8140;BME280;4111;50.972;7.072;2023-06-14T13:39:52;101019.59;;;28.63;30.38
8140;BME280;4111;50.972;7.072;2023-06-14T13:42:18;101014.72;;;28.96;29.82
8140;BME280;4111;50.972;7.072;2023-06-14T13:44:45;101009.47;;;28.75;30.06